sensor_id;sensor_type;location;lat;lon;timestamp;pressure;altitude;pressure_sealevel;temperature;humidity
72370;BME280;60343;-32.030;115.880;2023-08-06T00:00:19;102678.81;;;8.31;91.56
72370;BME280;60343;-32.030;115.880;2023-08-06T00:02:54;102679.84;;;8.65;91.57
72370;BME280;60343;-32.030;115.880;2023-08-06T00:05:34;102688.59;;;8.91;90.00
72370;BME280;60343;-32.030;115.880;2023-08-06T00:08:08;102690.66;;;9.22;89.83
72370;BME280;60343;-32.030;115.880;2023-08-06T00:10:43;102689.25;;;9.40;88.85
72370;BME280;60343;-32.030;115.880;2023-08-06T00:13:18;102688.31;;;9.75;86.50
72370;BME280;60343;-32.030;115.880;2023-08-06T00:15:52;102684.53;;;10.11;87.18
72370;BME280;60343;-32.030;115.880;2023-08-06T00:18:26;102690.72;;;10.45;86.16
72370;BME280;60343;-32.030;115.880;2023-08-06T00:21:11;102683.81;;;10.74;83.78
72370;BME280;60343;-32.030;115.880;2023-08-06T00:23:47;102676.16;;;11.01;83.11
72370;BME280;60343;-32.030;115.880;2023-08-06T00:26:21;102682.34;;;11.23;80.44
72370;BME280;60343;-32.030;115.880;2023-08-06T00:28:56;102687.38;;;11.37;79.91
72370;BME280;60343;-32.030;115.880;2023-08-06T00:31:30;102682.91;;;11.47;79.90
72370;BME280;60343;-32.030;115.880;2023-08-06T00:34:05;102681.59;;;11.62;79.42
72370;BME280;60343;-32.030;115.880;2023-08-06T00:36:45;102670.44;;;11.87;79.58
72370;BME280;60343;-32.030;115.880;2023-08-06T00:39:21;102675.97;;;12.26;77.67
72370;BME280;60343;-32.030;115.880;2023-08-06T00:41:55;102672.63;;;12.72;74.91
72370;BME280;60343;-32.030;115.880;2023-08-06T00:44:30;102672.34;;;13.23;71.21
72370;BME280;60343;-32.030;115.880;2023-08-06T00:47:04;102670.94;;;13.75;69.07
72370;BME280;60343;-32.030;115.880;2023-08-06T00:49:40;102668.81;;;14.33;66.21
72370;BME280;60343;-32.030;115.880;2023-08-06T00:52:20;102669.53;;;15.06;63.92
72370;BME280;60343;-32.030;115.880;2023-08-06T00:54:55;102670.09;;;15.35;60.94
72370;BME280;60343;-32.030;115.880;2023-08-06T00:57:30;102664.69;;;15.79;59.41
72370;BME280;60343;-32.030;115.880;2023-08-06T01:00:05;102664.88;;;16.27;59.96
72370;BME280;60343;-32.030;115.880;2023-08-06T01:02:40;102671.13;;;16.28;58.80
72370;BME280;60343;-32.030;115.880;2023-08-06T01:05:14;102672.66;;;16.39;58.95
72370;BME280;60343;-32.030;115.880;2023-08-06T01:08:06;102668.56;;;16.85;58.54
72370;BME280;60343;-32.030;115.880;2023-08-06T01:10:53;102670.25;;;17.18;57.03
72370;BME280;60343;-32.030;115.880;2023-08-06T01:13:36;102668.69;;;17.32;57.15
72370;BME280;60343;-32.030;115.880;2023-08-06T01:16:16;102656.13;;;17.79;55.80
72370;BME280;60343;-32.030;115.880;2023-08-06T01:18:51;102654.84;;;17.98;55.42
72370;BME280;60343;-32.030;115.880;2023-08-06T01:21:31;102663.97;;;18.36;53.73
72370;BME280;60343;-32.030;115.880;2023-08-06T01:24:05;102663.00;;;18.82;51.44
72370;BME280;60343;-32.030;115.880;2023-08-06T01:26:44;102656.03;;;19.25;49.30
72370;BME280;60343;-32.030;115.880;2023-08-06T01:29:25;102654.47;;;19.31;48.31
72370;BME280;60343;-32.030;115.880;2023-08-06T01:32:03;102649.72;;;19.62;47.89
72370;BME280;60343;-32.030;115.880;2023-08-06T01:34:38;102646.44;;;19.52;50.17
72370;BME280;60343;-32.030;115.880;2023-08-06T01:37:20;102651.69;;;19.54;50.00
72370;BME280;60343;-32.030;115.880;2023-08-06T01:39:54;102646.63;;;19.95;49.52
72370;BME280;60343;-32.030;115.880;2023-08-06T01:42:29;102651.75;;;20.19;47.06
72370;BME280;60343;-32.030;115.880;2023-08-06T01:45:04;102645.09;;;20.58;45.54
72370;BME280;60343;-32.030;115.880;2023-08-06T01:47:39;102643.47;;;20.84;46.84
72370;BME280;60343;-32.030;115.880;2023-08-06T01:50:13;102638.34;;;20.96;44.92
72370;BME280;60343;-32.030;115.880;2023-08-06T01:52:53;102632.66;;;20.91;45.85
72370;BME280;60343;-32.030;115.880;2023-08-06T01:55:29;102639.88;;;21.05;46.05
72370;BME280;60343;-32.030;115.880;2023-08-06T01:58:04;102637.94;;;20.99;45.39
72370;BME280;60343;-32.030;115.880;2023-08-06T02:00:38;102632.28;;;21.50;44.65
72370;BME280;60343;-32.030;115.880;2023-08-06T02:03:13;102632.34;;;21.63;43.68
72370;BME280;60343;-32.030;115.880;2023-08-06T02:05:47;102635.38;;;21.74;43.22
72370;BME280;60343;-32.030;115.880;2023-08-06T02:08:28;102626.50;;;21.66;43.06
72370;BME280;60343;-32.030;115.880;2023-08-06T02:11:02;102624.25;;;22.17;41.96
72370;BME280;60343;-32.030;115.880;2023-08-06T02:13:37;102620.84;;;22.08;42.96
72370;BME280;60343;-32.030;115.880;2023-08-06T02:16:11;102627.53;;;21.99;43.51
72370;BME280;60343;-32.030;115.880;2023-08-06T02:18:46;102627.66;;;22.25;42.30
72370;BME280;60343;-32.030;115.880;2023-08-06T02:21:20;102625.22;;;22.57;42.53
72370;BME280;60343;-32.030;115.880;2023-08-06T02:24:00;102627.50;;;22.47;42.38
72370;BME280;60343;-32.030;115.880;2023-08-06T02:26:35;102623.69;;;22.35;41.40
72370;BME280;60343;-32.030;115.880;2023-08-06T02:29:09;102623.69;;;21.87;42.95
72370;BME280;60343;-32.030;115.880;2023-08-06T02:31:44;102613.78;;;21.79;44.33
72370;BME280;60343;-32.030;115.880;2023-08-06T02:34:18;102615.63;;;22.13;43.86
72370;BME280;60343;-32.030;115.880;2023-08-06T02:36:53;102616.97;;;22.44;41.41
72370;BME280;60343;-32.030;115.880;2023-08-06T02:39:33;102607.72;;;22.32;41.21
72370;BME280;60343;-32.030;115.880;2023-08-06T02:42:08;102603.97;;;22.46;41.71
72370;BME280;60343;-32.030;115.880;2023-08-06T02:44:42;102611.13;;;22.47;41.07
72370;BME280;60343;-32.030;115.880;2023-08-06T02:47:17;102605.47;;;22.61;41.57
72370;BME280;60343;-32.030;115.880;2023-08-06T02:49:51;102604.84;;;22.66;41.08
72370;BME280;60343;-32.030;115.880;2023-08-06T02:52:26;102604.03;;;22.85;41.56
72370;BME280;60343;-32.030;115.880;2023-08-06T02:55:07;102592.69;;;22.95;40.59
72370;BME280;60343;-32.030;115.880;2023-08-06T02:57:41;102593.13;;;22.85;41.39
72370;BME280;60343;-32.030;115.880;2023-08-06T03:00:16;102585.28;;;22.43;40.47
72370;BME280;60343;-32.030;115.880;2023-08-06T03:02:51;102583.28;;;21.97;42.96
72370;BME280;60343;-32.030;115.880;2023-08-06T03:05:25;102587.22;;;21.47;44.04
72370;BME280;60343;-32.030;115.880;2023-08-06T03:08:00;102582.75;;;21.39;44.29
72370;BME280;60343;-32.030;115.880;2023-08-06T03:10:40;102583.06;;;21.23;43.56
72370;BME280;60343;-32.030;115.880;2023-08-06T03:13:14;102580.53;;;20.73;44.14
72370;BME280;60343;-32.030;115.880;2023-08-06T03:15:56;102571.16;;;21.03;43.40
72370;BME280;60343;-32.030;115.880;2023-08-06T03:18:31;102566.97;;;21.01;43.67
72370;BME280;60343;-32.030;115.880;2023-08-06T03:21:05;102563.94;;;20.89;44.32
72370;BME280;60343;-32.030;115.880;2023-08-06T03:23:40;102560.41;;;20.95;44.28
72370;BME280;60343;-32.030;115.880;2023-08-06T03:26:20;102548.00;;;21.14;44.82
72370;BME280;60343;-32.030;115.880;2023-08-06T03:28:55;102550.06;;;21.39;43.75
72370;BME280;60343;-32.030;115.880;2023-08-06T03:31:29;102541.50;;;21.49;43.33
72370;BME280;60343;-32.030;115.880;2023-08-06T03:34:04;102537.44;;;21.79;44.03
72370;BME280;60343;-32.030;115.880;2023-08-06T03:36:38;102532.50;;;21.96;44.99
72370;BME280;60343;-32.030;115.880;2023-08-06T03:39:13;102524.78;;;22.19;43.83
72370;BME280;60343;-32.030;115.880;2023-08-06T03:41:53;102517.88;;;22.30;43.06
72370;BME280;60343;-32.030;115.880;2023-08-06T03:44:33;102516.19;;;22.16;42.03
72370;BME280;60343;-32.030;115.880;2023-08-06T03:47:08;102515.75;;;22.06;44.53
72370;BME280;60343;-32.030;115.880;2023-08-06T03:49:42;102506.97;;;22.17;42.88
72370;BME280;60343;-32.030;115.880;2023-08-06T03:52:17;102513.88;;;22.13;43.87
72370;BME280;60343;-32.030;115.880;2023-08-06T03:54:52;102507.34;;;22.14;43.27
72370;BME280;60343;-32.030;115.880;2023-08-06T03:57:31;102501.50;;;22.17;45.79
72370;BME280;60343;-32.030;115.880;2023-08-06T04:00:07;102512.00;;;22.27;44.81
72370;BME280;60343;-32.030;115.880;2023-08-06T04:02:42;102514.06;;;22.11;44.13
72370;BME280;60343;-32.030;115.880;2023-08-06T04:05:17;102503.19;;;22.18;44.72
72370;BME280;60343;-32.030;115.880;2023-08-06T04:07:51;102500.44;;;22.11;44.68
72370;BME280;60343;-32.030;115.880;2023-08-06T04:10:27;102487.44;;;22.40;45.07
72370;BME280;60343;-32.030;115.880;2023-08-06T04:13:07;102482.63;;;22.35;44.99
72370;BME280;60343;-32.030;115.880;2023-08-06T04:15:42;102482.22;;;22.71;42.23
72370;BME280;60343;-32.030;115.880;2023-08-06T04:18:16;102469.41;;;22.78;40.81
72370;BME280;60343;-32.030;115.880;2023-08-06T04:20:51;102454.88;;;22.97;39.54
72370;BME280;60343;-32.030;115.880;2023-08-06T04:23:25;102450.28;;;22.78;40.25
72370;BME280;60343;-32.030;115.880;2023-08-06T04:26:00;102446.09;;;22.76;42.67
72370;BME280;60343;-32.030;115.880;2023-08-06T04:28:40;102445.81;;;22.97;40.63
72370;BME280;60343;-32.030;115.880;2023-08-06T04:31:15;102443.09;;;22.97;42.05
72370;BME280;60343;-32.030;115.880;2023-08-06T04:33:49;102439.91;;;23.06;41.60
72370;BME280;60343;-32.030;115.880;2023-08-06T04:36:24;102437.84;;;22.69;40.47
72370;BME280;60343;-32.030;115.880;2023-08-06T04:38:58;102433.06;;;22.51;42.10
72370;BME280;60343;-32.030;115.880;2023-08-06T04:41:33;102432.63;;;22.74;42.22
72370;BME280;60343;-32.030;115.880;2023-08-06T04:44:13;102434.31;;;22.82;44.23
72370;BME280;60343;-32.030;115.880;2023-08-06T04:46:47;102421.63;;;23.00;42.71
72370;BME280;60343;-32.030;115.880;2023-08-06T04:49:22;102423.97;;;23.03;40.35
72370;BME280;60343;-32.030;115.880;2023-08-06T04:51:56;102412.34;;;23.15;39.62
72370;BME280;60343;-32.030;115.880;2023-08-06T04:54:31;102409.22;;;23.04;39.57
72370;BME280;60343;-32.030;115.880;2023-08-06T04:57:06;102399.78;;;23.07;39.37
72370;BME280;60343;-32.030;115.880;2023-08-06T04:59:46;102400.16;;;23.17;39.77
72370;BME280;60343;-32.030;115.880;2023-08-06T05:02:20;102400.34;;;23.16;38.54
72370;BME280;60343;-32.030;115.880;2023-08-06T05:04:54;102397.63;;;23.16;39.12
72370;BME280;60343;-32.030;115.880;2023-08-06T05:07:29;102393.81;;;23.23;39.98
72370;BME280;60343;-32.030;115.880;2023-08-06T05:10:04;102384.72;;;23.36;39.31
72370;BME280;60343;-32.030;115.880;2023-08-06T05:12:38;102387.44;;;23.36;39.73
72370;BME280;60343;-32.030;115.880;2023-08-06T05:15:19;102378.28;;;23.24;38.71
72370;BME280;60343;-32.030;115.880;2023-08-06T05:17:53;102382.91;;;23.17;38.87
72370;BME280;60343;-32.030;115.880;2023-08-06T05:20:28;102379.53;;;23.21;38.89
72370;BME280;60343;-32.030;115.880;2023-08-06T05:23:02;102379.09;;;23.24;39.11
72370;BME280;60343;-32.030;115.880;2023-08-06T05:25:37;102368.97;;;23.31;39.20
72370;BME280;60343;-32.030;115.880;2023-08-06T05:28:11;102369.31;;;23.41;39.40
72370;BME280;60343;-32.030;115.880;2023-08-06T05:30:51;102360.03;;;23.49;39.47
72370;BME280;60343;-32.030;115.880;2023-08-06T05:33:26;102357.94;;;23.51;38.58
72370;BME280;60343;-32.030;115.880;2023-08-06T05:36:00;102359.03;;;23.43;39.78
72370;BME280;60343;-32.030;115.880;2023-08-06T05:38:35;102355.22;;;23.51;40.72
72370;BME280;60343;-32.030;115.880;2023-08-06T05:41:09;102348.03;;;23.81;39.78
72370;BME280;60343;-32.030;115.880;2023-08-06T05:43:44;102342.78;;;24.05;39.04
72370;BME280;60343;-32.030;115.880;2023-08-06T05:46:24;102341.31;;;24.09;38.29
72370;BME280;60343;-32.030;115.880;2023-08-06T05:48:59;102336.88;;;24.08;39.95
72370;BME280;60343;-32.030;115.880;2023-08-06T05:51:33;102332.47;;;24.07;39.40
72370;BME280;60343;-32.030;115.880;2023-08-06T05:54:08;102335.88;;;23.77;40.33
72370;BME280;60343;-32.030;115.880;2023-08-06T05:56:43;102334.91;;;23.65;40.28
72370;BME280;60343;-32.030;115.880;2023-08-06T05:59:17;102337.47;;;23.60;41.74
72370;BME280;60343;-32.030;115.880;2023-08-06T06:01:57;102336.63;;;23.60;39.96
72370;BME280;60343;-32.030;115.880;2023-08-06T06:04:31;102338.06;;;23.69;39.47
72370;BME280;60343;-32.030;115.880;2023-08-06T06:07:06;102336.38;;;23.92;40.06
72370;BME280;60343;-32.030;115.880;2023-08-06T06:09:41;102327.81;;;23.89;40.21
72370;BME280;60343;-32.030;115.880;2023-08-06T06:12:16;102328.81;;;24.38;38.14
72370;BME280;60343;-32.030;115.880;2023-08-06T06:14:53;102323.63;;;24.29;38.27
72370;BME280;60343;-32.030;115.880;2023-08-06T06:17:34;102319.25;;;24.04;39.91
72370;BME280;60343;-32.030;115.880;2023-08-06T06:20:09;102310.47;;;23.95;40.82
72370;BME280;60343;-32.030;115.880;2023-08-06T06:22:43;102311.97;;;24.16;39.71
72370;BME280;60343;-32.030;115.880;2023-08-06T06:25:18;102306.94;;;24.13;39.82
72370;BME280;60343;-32.030;115.880;2023-08-06T06:27:53;102304.41;;;24.18;39.68
72370;BME280;60343;-32.030;115.880;2023-08-06T06:30:27;102305.97;;;24.80;37.89
72370;BME280;60343;-32.030;115.880;2023-08-06T06:33:07;102302.94;;;25.06;37.08
72370;BME280;60343;-32.030;115.880;2023-08-06T06:35:42;102302.09;;;25.06;36.46
72370;BME280;60343;-32.030;115.880;2023-08-06T06:38:17;102297.16;;;24.96;37.72
72370;BME280;60343;-32.030;115.880;2023-08-06T06:40:55;102295.81;;;24.87;38.60
72370;BME280;60343;-32.030;115.880;2023-08-06T06:43:30;102289.81;;;25.38;36.34
72370;BME280;60343;-32.030;115.880;2023-08-06T06:46:05;102288.72;;;24.98;37.54
72370;BME280;60343;-32.030;115.880;2023-08-06T06:48:46;102284.50;;;25.25;36.48
72370;BME280;60343;-32.030;115.880;2023-08-06T06:51:20;102294.25;;;25.09;37.05
72370;BME280;60343;-32.030;115.880;2023-08-06T06:53:55;102289.66;;;24.92;36.77
72370;BME280;60343;-32.030;115.880;2023-08-06T06:56:29;102290.25;;;24.94;37.13
72370;BME280;60343;-32.030;115.880;2023-08-06T06:59:03;102286.16;;;24.85;37.79
72370;BME280;60343;-32.030;115.880;2023-08-06T07:01:38;102279.94;;;25.07;37.80
72370;BME280;60343;-32.030;115.880;2023-08-06T07:04:18;102278.44;;;25.23;37.60
72370;BME280;60343;-32.030;115.880;2023-08-06T07:06:53;102271.44;;;24.97;38.19
72370;BME280;60343;-32.030;115.880;2023-08-06T07:09:27;102273.84;;;25.05;37.47
72370;BME280;60343;-32.030;115.880;2023-08-06T07:12:01;102282.63;;;25.26;36.60
72370;BME280;60343;-32.030;115.880;2023-08-06T07:14:36;102269.41;;;24.93;36.89
72370;BME280;60343;-32.030;115.880;2023-08-06T07:17:11;102275.72;;;24.93;37.25
72370;BME280;60343;-32.030;115.880;2023-08-06T07:19:51;102268.50;;;25.10;37.29
72370;BME280;60343;-32.030;115.880;2023-08-06T07:22:25;102262.38;;;24.97;37.62
72370;BME280;60343;-32.030;115.880;2023-08-06T07:24:59;102270.63;;;24.78;37.89
72370;BME280;60343;-32.030;115.880;2023-08-06T07:27:34;102274.66;;;24.94;38.24
72370;BME280;60343;-32.030;115.880;2023-08-06T07:30:09;102269.28;;;24.69;37.78
72370;BME280;60343;-32.030;115.880;2023-08-06T07:32:43;102272.97;;;24.75;38.46
72370;BME280;60343;-32.030;115.880;2023-08-06T07:35:24;102279.69;;;24.79;38.68
72370;BME280;60343;-32.030;115.880;2023-08-06T07:37:58;102265.13;;;24.97;37.00
72370;BME280;60343;-32.030;115.880;2023-08-06T07:40:32;102268.19;;;24.89;38.02
72370;BME280;60343;-32.030;115.880;2023-08-06T07:43:09;102269.91;;;25.43;37.25
72370;BME280;60343;-32.030;115.880;2023-08-06T07:45:44;102263.44;;;24.96;38.08
72370;BME280;60343;-32.030;115.880;2023-08-06T07:48:18;102264.56;;;24.58;38.81
72370;BME280;60343;-32.030;115.880;2023-08-06T07:50:58;102265.31;;;24.47;39.54
72370;BME280;60343;-32.030;115.880;2023-08-06T07:53:33;102260.47;;;24.49;39.24
72370;BME280;60343;-32.030;115.880;2023-08-06T07:56:07;102257.56;;;24.62;39.47
72370;BME280;60343;-32.030;115.880;2023-08-06T07:58:42;102262.81;;;24.46;39.65
72370;BME280;60343;-32.030;115.880;2023-08-06T08:01:16;102259.69;;;24.42;40.31
72370;BME280;60343;-32.030;115.880;2023-08-06T08:03:51;102258.09;;;24.53;40.08
72370;BME280;60343;-32.030;115.880;2023-08-06T08:06:31;102251.16;;;24.50;40.12
72370;BME280;60343;-32.030;115.880;2023-08-06T08:09:05;102250.31;;;24.50;39.92
72370;BME280;60343;-32.030;115.880;2023-08-06T08:11:41;102253.47;;;24.53;40.29
72370;BME280;60343;-32.030;115.880;2023-08-06T08:14:15;102255.88;;;24.61;40.24
72370;BME280;60343;-32.030;115.880;2023-08-06T08:16:50;102254.00;;;24.01;41.35
72370;BME280;60343;-32.030;115.880;2023-08-06T08:19:27;102253.53;;;23.85;42.24
72370;BME280;60343;-32.030;115.880;2023-08-06T08:22:07;102247.06;;;23.80;42.01
72370;BME280;60343;-32.030;115.880;2023-08-06T08:24:41;102251.94;;;23.53;42.77
72370;BME280;60343;-32.030;115.880;2023-08-06T08:27:16;102256.97;;;23.56;42.90
72370;BME280;60343;-32.030;115.880;2023-08-06T08:29:51;102256.06;;;23.62;43.15
72370;BME280;60343;-32.030;115.880;2023-08-06T08:32:26;102256.03;;;23.69;43.34
72370;BME280;60343;-32.030;115.880;2023-08-06T08:35:00;102255.78;;;23.70;42.84
72370;BME280;60343;-32.030;115.880;2023-08-06T08:37:40;102254.38;;;23.86;42.63
72370;BME280;60343;-32.030;115.880;2023-08-06T08:40:16;102253.00;;;23.95;42.28
72370;BME280;60343;-32.030;115.880;2023-08-06T08:42:50;102255.00;;;23.88;42.98
72370;BME280;60343;-32.030;115.880;2023-08-06T08:45:27;102247.44;;;24.08;42.13
72370;BME280;60343;-32.030;115.880;2023-08-06T08:48:03;102234.13;;;24.12;42.38
72370;BME280;60343;-32.030;115.880;2023-08-06T08:50:37;102237.59;;;24.01;42.71
72370;BME280;60343;-32.030;115.880;2023-08-06T08:53:18;102237.59;;;24.01;42.60
72370;BME280;60343;-32.030;115.880;2023-08-06T08:55:53;102234.44;;;24.04;43.85
72370;BME280;60343;-32.030;115.880;2023-08-06T08:58:28;102240.78;;;24.22;44.51
72370;BME280;60343;-32.030;115.880;2023-08-06T09:01:03;102243.38;;;23.92;45.10
72370;BME280;60343;-32.030;115.880;2023-08-06T09:03:38;102235.97;;;23.75;45.53
72370;BME280;60343;-32.030;115.880;2023-08-06T09:06:13;102225.03;;;23.50;46.12
72370;BME280;60343;-32.030;115.880;2023-08-06T09:09:00;102234.28;;;22.93;47.44
72370;BME280;60343;-32.030;115.880;2023-08-06T09:11:39;102229.94;;;22.28;49.15
72370;BME280;60343;-32.030;115.880;2023-08-06T09:14:17;102230.84;;;21.69;50.95
72370;BME280;60343;-32.030;115.880;2023-08-06T09:16:52;102235.47;;;21.49;51.55
72370;BME280;60343;-32.030;115.880;2023-08-06T09:19:27;102240.06;;;21.22;52.42
72370;BME280;60343;-32.030;115.880;2023-08-06T09:22:02;102237.97;;;21.24;52.27
72370;BME280;60343;-32.030;115.880;2023-08-06T09:24:46;102243.91;;;20.80;53.34
72370;BME280;60343;-32.030;115.880;2023-08-06T09:27:20;102236.91;;;20.58;54.18
72370;BME280;60343;-32.030;115.880;2023-08-06T09:29:56;102243.56;;;20.42;54.04
72370;BME280;60343;-32.030;115.880;2023-08-06T09:32:45;102250.72;;;20.15;54.85
72370;BME280;60343;-32.030;115.880;2023-08-06T09:35:21;102247.41;;;19.92;55.65
72370;BME280;60343;-32.030;115.880;2023-08-06T09:37:55;102249.94;;;19.93;55.74
72370;BME280;60343;-32.030;115.880;2023-08-06T09:40:35;102253.03;;;19.62;56.52
72370;BME280;60343;-32.030;115.880;2023-08-06T09:43:12;102252.69;;;19.44;57.06
72370;BME280;60343;-32.030;115.880;2023-08-06T09:45:47;102261.06;;;19.28;57.84
72370;BME280;60343;-32.030;115.880;2023-08-06T09:48:25;102262.56;;;19.31;58.50
72370;BME280;60343;-32.030;115.880;2023-08-06T09:51:01;102260.03;;;19.08;58.52
72370;BME280;60343;-32.030;115.880;2023-08-06T09:53:37;102257.50;;;19.27;58.34
72370;BME280;60343;-32.030;115.880;2023-08-06T09:56:18;102257.13;;;19.09;58.96
72370;BME280;60343;-32.030;115.880;2023-08-06T09:58:55;102259.81;;;18.88;59.85
72370;BME280;60343;-32.030;115.880;2023-08-06T10:01:29;102262.47;;;18.67;60.48
72370;BME280;60343;-32.030;115.880;2023-08-06T10:04:05;102264.84;;;18.55;60.65
72370;BME280;60343;-32.030;115.880;2023-08-06T10:06:45;102261.56;;;18.30;61.48
72370;BME280;60343;-32.030;115.880;2023-08-06T10:09:20;102266.59;;;18.04;62.34
72370;BME280;60343;-32.030;115.880;2023-08-06T10:12:02;102270.41;;;17.80;62.63
72370;BME280;60343;-32.030;115.880;2023-08-06T10:14:38;102272.16;;;17.73;63.16
72370;BME280;60343;-32.030;115.880;2023-08-06T10:17:13;102274.94;;;17.65;63.71
72370;BME280;60343;-32.030;115.880;2023-08-06T10:19:48;102277.69;;;17.57;64.55
72370;BME280;60343;-32.030;115.880;2023-08-06T10:22:24;102278.94;;;17.46;65.53
72370;BME280;60343;-32.030;115.880;2023-08-06T10:24:59;102274.50;;;17.31;65.08
72370;BME280;60343;-32.030;115.880;2023-08-06T10:27:41;102283.91;;;17.20;65.94
72370;BME280;60343;-32.030;115.880;2023-08-06T10:30:27;102285.50;;;17.06;66.07
72370;BME280;60343;-32.030;115.880;2023-08-06T10:33:03;102290.50;;;16.95;66.57
72370;BME280;60343;-32.030;115.880;2023-08-06T10:35:41;102291.72;;;16.84;66.93
72370;BME280;60343;-32.030;115.880;2023-08-06T10:41:06;102292.13;;;16.73;67.32
72370;BME280;60343;-32.030;115.880;2023-08-06T10:41:33;102292.50;;;16.62;67.49
72370;BME280;60343;-32.030;115.880;2023-08-06T10:47:00;102298.56;;;16.56;67.78
72370;BME280;60343;-32.030;115.880;2023-08-06T10:47:28;102294.22;;;16.47;67.69
72370;BME280;60343;-32.030;115.880;2023-08-06T10:50:03;102298.63;;;16.48;67.90
72370;BME280;60343;-32.030;115.880;2023-08-06T10:52:39;102299.78;;;16.45;69.33
72370;BME280;60343;-32.030;115.880;2023-08-06T10:55:14;102302.66;;;16.52;69.16
72370;BME280;60343;-32.030;115.880;2023-08-06T10:57:57;102304.72;;;16.42;69.86
72370;BME280;60343;-32.030;115.880;2023-08-06T11:00:37;102303.75;;;16.35;69.64
72370;BME280;60343;-32.030;115.880;2023-08-06T11:03:12;102304.25;;;16.22;69.60
72370;BME280;60343;-32.030;115.880;2023-08-06T11:05:50;102316.97;;;16.13;70.07
72370;BME280;60343;-32.030;115.880;2023-08-06T11:08:27;102318.66;;;16.14;70.17
72370;BME280;60343;-32.030;115.880;2023-08-06T11:11:09;102324.41;;;16.03;70.31
72370;BME280;60343;-32.030;115.880;2023-08-06T11:13:46;102320.34;;;15.91;70.72
72370;BME280;60343;-32.030;115.880;2023-08-06T11:16:26;102324.06;;;15.82;70.69
72370;BME280;60343;-32.030;115.880;2023-08-06T11:19:01;102325.09;;;15.73;71.57
72370;BME280;60343;-32.030;115.880;2023-08-06T11:21:35;102328.13;;;15.70;71.83
72370;BME280;60343;-32.030;115.880;2023-08-06T11:24:11;102327.78;;;15.65;71.64
72370;BME280;60343;-32.030;115.880;2023-08-06T11:26:46;102322.06;;;15.68;71.99
72370;BME280;60343;-32.030;115.880;2023-08-06T11:29:20;102326.94;;;15.64;72.28
72370;BME280;60343;-32.030;115.880;2023-08-06T11:32:04;102331.16;;;15.67;72.69
72370;BME280;60343;-32.030;115.880;2023-08-06T11:34:39;102326.09;;;15.56;72.46
72370;BME280;60343;-32.030;115.880;2023-08-06T11:37:14;102319.47;;;15.50;73.00
72370;BME280;60343;-32.030;115.880;2023-08-06T11:39:50;102324.03;;;15.50;72.97
72370;BME280;60343;-32.030;115.880;2023-08-06T11:42:31;102323.59;;;15.54;73.58
72370;BME280;60343;-32.030;115.880;2023-08-06T11:45:05;102314.63;;;15.54;73.48
72370;BME280;60343;-32.030;115.880;2023-08-06T11:47:51;102325.91;;;15.49;73.78
72370;BME280;60343;-32.030;115.880;2023-08-06T11:50:26;102324.03;;;15.41;73.70
72370;BME280;60343;-32.030;115.880;2023-08-06T11:53:02;102316.28;;;15.38;73.84
72370;BME280;60343;-32.030;115.880;2023-08-06T11:55:37;102320.78;;;15.30;73.96
72370;BME280;60343;-32.030;115.880;2023-08-06T11:58:11;102305.47;;;15.22;74.49
72370;BME280;60343;-32.030;115.880;2023-08-06T12:00:46;102308.31;;;15.21;74.28
72370;BME280;60343;-32.030;115.880;2023-08-06T12:03:27;102310.16;;;15.12;74.69
72370;BME280;60343;-32.030;115.880;2023-08-06T12:06:03;102306.13;;;15.08;74.77
72370;BME280;60343;-32.030;115.880;2023-08-06T12:08:37;102308.97;;;15.07;74.59
72370;BME280;60343;-32.030;115.880;2023-08-06T12:11:12;102294.44;;;14.99;74.79
72370;BME280;60343;-32.030;115.880;2023-08-06T12:13:52;102300.38;;;15.03;74.41
72370;BME280;60343;-32.030;115.880;2023-08-06T12:16:27;102312.47;;;14.99;74.45
72370;BME280;60343;-32.030;115.880;2023-08-06T12:19:09;102304.06;;;15.02;74.53
72370;BME280;60343;-32.030;115.880;2023-08-06T12:21:44;102297.31;;;14.98;74.63
72370;BME280;60343;-32.030;115.880;2023-08-06T12:24:18;102293.09;;;14.95;74.66
72370;BME280;60343;-32.030;115.880;2023-08-06T12:26:53;102291.94;;;14.98;75.26
72370;BME280;60343;-32.030;115.880;2023-08-06T12:29:29;102293.09;;;14.95;74.80
72370;BME280;60343;-32.030;115.880;2023-08-06T12:32:05;102282.00;;;14.98;74.95
72370;BME280;60343;-32.030;115.880;2023-08-06T12:34:45;102290.78;;;15.17;74.25
72370;BME280;60343;-32.030;115.880;2023-08-06T12:37:20;102284.38;;;15.26;74.24
72370;BME280;60343;-32.030;115.880;2023-08-06T12:39:54;102279.19;;;15.49;73.51
72370;BME280;60343;-32.030;115.880;2023-08-06T12:42:29;102268.91;;;15.76;72.26
72370;BME280;60343;-32.030;115.880;2023-08-06T12:45:03;102275.81;;;15.87;71.33
72370;BME280;60343;-32.030;115.880;2023-08-06T12:47:38;102275.09;;;16.01;70.59
72370;BME280;60343;-32.030;115.880;2023-08-06T12:50:18;102268.19;;;15.99;70.60
72370;BME280;60343;-32.030;115.880;2023-08-06T12:52:53;102268.34;;;15.97;70.77
72370;BME280;60343;-32.030;115.880;2023-08-06T12:55:28;102268.19;;;15.91;70.78
72370;BME280;60343;-32.030;115.880;2023-08-06T12:58:04;102261.09;;;15.89;71.31
72370;BME280;60343;-32.030;115.880;2023-08-06T13:00:39;102264.66;;;15.82;71.30
72370;BME280;60343;-32.030;115.880;2023-08-06T13:03:14;102265.53;;;15.66;71.86
72370;BME280;60343;-32.030;115.880;2023-08-06T13:05:54;102271.78;;;15.59;71.83